sensor_id;sensor_type;location;lat;lon;timestamp;pressure;altitude;pressure_sealevel;temperature;humidity
5877;BME280;2964;42.144;24.730;2023-05-07T00:02:04;145193.19;;;14.57;100.00
5877;BME280;2964;42.144;24.730;2023-05-07T00:04:31;145228.53;;;14.71;100.00
5877;BME280;2964;42.144;24.730;2023-05-07T00:07:02;145262.59;;;14.85;100.00
5877;BME280;2964;42.144;24.730;2023-05-07T00:09:29;145271.41;;;14.89;99.07
5877;BME280;2964;42.144;24.730;2023-05-07T00:11:57;145256.25;;;14.82;99.33
5877;BME280;2964;42.144;24.730;2023-05-07T00:14:23;145300.38;;;15.00;99.03
5877;BME280;2964;42.144;24.730;2023-05-07T00:16:50;145285.28;;;14.94;99.34
5877;BME280;2964;42.144;24.730;2023-05-07T00:19:17;145263.84;;;14.85;98.10
5877;BME280;2964;42.144;24.730;2023-05-07T00:21:43;145194.53;;;14.57;98.81
5877;BME280;2964;42.144;24.730;2023-05-07T00:24:10;145294.09;;;14.98;97.56
5877;BME280;2964;42.144;24.730;2023-05-07T00:26:37;145241.16;;;14.76;98.39
5877;BME280;2964;42.144;24.730;2023-05-07T00:29:05;145260.06;;;14.84;97.65
5877;BME280;2964;42.144;24.730;2023-05-07T00:31:31;145226.03;;;14.70;98.82
5877;BME280;2964;42.144;24.730;2023-05-07T00:33:58;145266.38;;;14.86;98.73
5877;BME280;2964;42.144;24.730;2023-05-07T00:36:24;145246.19;;;14.78;97.79
5877;BME280;2964;42.144;24.730;2023-05-07T00:38:53;145262.59;;;14.85;97.58
5877;BME280;2964;42.144;24.730;2023-05-07T00:41:20;145314.25;;;15.06;96.52
5877;BME280;2964;42.144;24.730;2023-05-07T00:43:47;145265.09;;;14.86;96.41
5877;BME280;2964;42.144;24.730;2023-05-07T00:46:15;145304.16;;;15.02;96.29
5877;BME280;2964;42.144;24.730;2023-05-07T00:48:42;145302.94;;;15.01;95.56
5877;BME280;2964;42.144;24.730;2023-05-07T00:51:09;145215.94;;;14.66;96.85
5877;BME280;2964;42.144;24.730;2023-05-07T00:53:36;145200.81;;;14.60;96.82
5877;BME280;2964;42.144;24.730;2023-05-07T00:56:03;145241.16;;;14.76;97.80
5877;BME280;2964;42.144;24.730;2023-05-07T00:58:31;145223.50;;;14.69;97.38
5877;BME280;2964;42.144;24.730;2023-05-07T01:00:59;145203.38;;;14.61;97.46
5877;BME280;2964;42.144;24.730;2023-05-07T01:03:27;145204.63;;;14.61;98.04
5877;BME280;2964;42.144;24.730;2023-05-07T01:05:55;145179.34;;;14.51;98.10
5877;BME280;2964;42.144;24.730;2023-05-07T01:08:24;145185.66;;;14.54;97.79
5877;BME280;2964;42.144;24.730;2023-05-07T01:10:54;145157.97;;;14.42;99.27
5877;BME280;2964;42.144;24.730;2023-05-07T01:13:20;145146.59;;;14.38;100.00
5877;BME280;2964;42.144;24.730;2023-05-07T01:15:47;145116.34;;;14.25;100.00
5877;BME280;2964;42.144;24.730;2023-05-07T01:18:14;145131.50;;;14.32;100.00
5877;BME280;2964;42.144;24.730;2023-05-07T01:20:42;145140.31;;;14.35;100.00
5877;BME280;2964;42.144;24.730;2023-05-07T01:23:11;145122.66;;;14.28;100.00
5877;BME280;2964;42.144;24.730;2023-05-07T01:25:37;145103.78;;;14.20;100.00
5877;BME280;2964;42.144;24.730;2023-05-07T01:28:04;145107.53;;;14.22;100.00
5877;BME280;2964;42.144;24.730;2023-05-07T01:30:32;145058.44;;;14.02;100.00
5877;BME280;2964;42.144;24.730;2023-05-07T01:33:04;145102.50;;;14.20;100.00
5877;BME280;2964;42.144;24.730;2023-05-07T01:35:37;145026.97;;;13.89;100.00
5877;BME280;2964;42.144;24.730;2023-05-07T01:38:05;145072.28;;;14.07;100.00
5877;BME280;2964;42.144;24.730;2023-05-07T01:40:33;145112.59;;;14.24;100.00
5877;BME280;2964;42.144;24.730;2023-05-07T01:43:02;145097.47;;;14.18;100.00
5877;BME280;2964;42.144;24.730;2023-05-07T01:45:30;145084.84;;;14.13;100.00
5877;BME280;2964;42.144;24.730;2023-05-07T01:47:58;145074.78;;;14.08;100.00
5877;BME280;2964;42.144;24.730;2023-05-07T01:50:25;145081.13;;;14.11;100.00
5877;BME280;2964;42.144;24.730;2023-05-07T01:52:53;145049.63;;;13.98;100.00
5877;BME280;2964;42.144;24.730;2023-05-07T01:55:19;145097.47;;;14.18;100.00
5877;BME280;2964;42.144;24.730;2023-05-07T01:57:48;145040.81;;;13.95;100.00
5877;BME280;2964;42.144;24.730;2023-05-07T02:00:15;145011.81;;;13.83;100.00
5877;BME280;2964;42.144;24.730;2023-05-07T02:02:42;145034.47;;;13.92;100.00
5877;BME280;2964;42.144;24.730;2023-05-07T02:05:09;145047.09;;;13.97;100.00
5877;BME280;2964;42.144;24.730;2023-05-07T02:07:36;145057.16;;;14.01;100.00
5877;BME280;2964;42.144;24.730;2023-05-07T02:10:03;145064.72;;;14.04;100.00
5877;BME280;2964;42.144;24.730;2023-05-07T02:12:30;145049.63;;;13.98;100.00
5877;BME280;2964;42.144;24.730;2023-05-07T02:14:58;145052.13;;;13.99;100.00
5877;BME280;2964;42.144;24.730;2023-05-07T02:17:25;145020.63;;;13.86;100.00
5877;BME280;2964;42.144;24.730;2023-05-07T02:19:51;144971.50;;;13.66;100.00
5877;BME280;2964;42.144;24.730;2023-05-07T02:22:18;144943.81;;;13.55;100.00
5877;BME280;2964;42.144;24.730;2023-05-07T02:24:45;144928.72;;;13.49;100.00
5877;BME280;2964;42.144;24.730;2023-05-07T02:27:11;144943.81;;;13.55;100.00
5877;BME280;2964;42.144;24.730;2023-05-07T02:29:38;144958.97;;;13.61;100.00
5877;BME280;2964;42.144;24.730;2023-05-07T02:32:06;144948.84;;;13.57;100.00
5877;BME280;2964;42.144;24.730;2023-05-07T02:34:33;144845.63;;;13.15;100.00
5877;BME280;2964;42.144;24.730;2023-05-07T02:36:59;144838.03;;;13.12;100.00
5877;BME280;2964;42.144;24.730;2023-05-07T02:39:26;144771.34;;;12.85;100.00
5877;BME280;2964;42.144;24.730;2023-05-07T02:41:53;144858.16;;;13.20;100.00
5877;BME280;2964;42.144;24.730;2023-05-07T02:44:20;144850.66;;;13.17;100.00
5877;BME280;2964;42.144;24.730;2023-05-07T02:46:46;144824.22;;;13.06;100.00
5877;BME280;2964;42.144;24.730;2023-05-07T02:49:14;144806.59;;;12.99;100.00
5877;BME280;2964;42.144;24.730;2023-05-07T02:51:41;144776.38;;;12.87;100.00
5877;BME280;2964;42.144;24.730;2023-05-07T02:54:08;144799.00;;;12.96;100.00
5877;BME280;2964;42.144;24.730;2023-05-07T02:56:34;144776.38;;;12.87;100.00
5877;BME280;2964;42.144;24.730;2023-05-07T02:59:01;144762.53;;;12.81;100.00
5877;BME280;2964;42.144;24.730;2023-05-07T03:01:28;144752.47;;;12.77;100.00
5877;BME280;2964;42.144;24.730;2023-05-07T03:03:54;144733.59;;;12.69;100.00
5877;BME280;2964;42.144;24.730;2023-05-07T03:06:23;144719.78;;;12.64;100.00
5877;BME280;2964;42.144;24.730;2023-05-07T03:08:49;144713.44;;;12.61;100.00
5877;BME280;2964;42.144;24.730;2023-05-07T03:11:16;144709.66;;;12.60;100.00
5877;BME280;2964;42.144;24.730;2023-05-07T03:13:43;144702.16;;;12.57;100.00
5877;BME280;2964;42.144;24.730;2023-05-07T03:16:09;144699.63;;;12.55;100.00
5877;BME280;2964;42.144;24.730;2023-05-07T03:18:36;144692.09;;;12.52;100.00
5877;BME280;2964;42.144;24.730;2023-05-07T03:21:03;144682.00;;;12.48;100.00
5877;BME280;2964;42.144;24.730;2023-05-07T03:23:31;144693.34;;;12.53;100.00
5877;BME280;2964;42.144;24.730;2023-05-07T03:25:57;144699.63;;;12.55;100.00
5877;BME280;2964;42.144;24.730;2023-05-07T03:28:24;144703.41;;;12.57;100.00
5877;BME280;2964;42.144;24.730;2023-05-07T03:30:50;144704.63;;;12.58;100.00
5877;BME280;2964;42.144;24.730;2023-05-07T03:33:17;144723.56;;;12.65;100.00
5877;BME280;2964;42.144;24.730;2023-05-07T03:35:44;144734.84;;;12.70;100.00
5877;BME280;2964;42.144;24.730;2023-05-07T03:38:11;144704.63;;;12.58;100.00
5877;BME280;2964;42.144;24.730;2023-05-07T03:40:39;144739.88;;;12.72;100.00
5877;BME280;2964;42.144;24.730;2023-05-07T03:43:05;144746.19;;;12.74;100.00
5877;BME280;2964;42.144;24.730;2023-05-07T03:45:32;144739.88;;;12.72;100.00
5877;BME280;2964;42.144;24.730;2023-05-07T03:47:59;144768.84;;;12.84;100.00
5877;BME280;2964;42.144;24.730;2023-05-07T03:50:25;144626.66;;;12.26;100.00
5877;BME280;2964;42.144;24.730;2023-05-07T03:52:52;144775.13;;;12.86;100.00
5877;BME280;2964;42.144;24.730;2023-05-07T03:55:19;144767.56;;;12.83;100.00
5877;BME280;2964;42.144;24.730;2023-05-07T03:57:47;144792.75;;;12.93;100.00
5877;BME280;2964;42.144;24.730;2023-05-07T04:00:14;144785.19;;;12.90;100.00
5877;BME280;2964;42.144;24.730;2023-05-07T04:02:40;144810.38;;;13.01;100.00
5877;BME280;2964;42.144;24.730;2023-05-07T04:05:07;144796.53;;;12.95;100.00
5877;BME280;2964;42.144;24.730;2023-05-07T04:07:34;144828.00;;;13.08;100.00
5877;BME280;2964;42.144;24.730;2023-05-07T04:10:01;144831.72;;;13.09;100.00
5877;BME280;2964;42.144;24.730;2023-05-07T04:12:28;144849.34;;;13.17;100.00
5877;BME280;2964;42.144;24.730;2023-05-07T04:14:56;144792.75;;;12.93;100.00
5877;BME280;2964;42.144;24.730;2023-05-07T04:17:22;144873.31;;;13.26;100.00
5877;BME280;2964;42.144;24.730;2023-05-07T04:19:49;144904.81;;;13.39;100.00
5877;BME280;2964;42.144;24.730;2023-05-07T04:22:15;144980.31;;;13.70;100.00
5877;BME280;2964;42.144;24.730;2023-05-07T04:24:42;144948.84;;;13.57;100.00
5877;BME280;2964;42.144;24.730;2023-05-07T04:27:09;145010.56;;;13.82;100.00
5877;BME280;2964;42.144;24.730;2023-05-07T04:29:36;145015.59;;;13.84;100.00
5877;BME280;2964;42.144;24.730;2023-05-07T04:32:05;145063.47;;;14.04;100.00
5877;BME280;2964;42.144;24.730;2023-05-07T04:34:31;145089.94;;;14.15;100.00
5877;BME280;2964;42.144;24.730;2023-05-07T04:36:58;145098.72;;;14.18;100.00
5877;BME280;2964;42.144;24.730;2023-05-07T04:39:25;145128.97;;;14.31;100.00
5877;BME280;2964;42.144;24.730;2023-05-07T04:41:52;145256.25;;;14.82;100.00
5877;BME280;2964;42.144;24.730;2023-05-07T04:44:19;145310.44;;;15.04;100.00
5877;BME280;2964;42.144;24.730;2023-05-07T04:46:46;145393.69;;;15.38;99.69
5877;BME280;2964;42.144;24.730;2023-05-07T04:49:14;145690.13;;;16.59;98.01
5877;BME280;2964;42.144;24.730;2023-05-07T04:51:40;145993.19;;;17.82;90.31
5877;BME280;2964;42.144;24.730;2023-05-07T04:54:08;146254.81;;;18.88;87.17
5877;BME280;2964;42.144;24.730;2023-05-07T04:56:35;146511.59;;;19.93;80.17
5877;BME280;2964;42.144;24.730;2023-05-07T04:59:02;146545.72;;;20.06;79.97
5877;BME280;2964;42.144;24.730;2023-05-07T05:01:28;146584.97;;;20.22;75.97
5877;BME280;2964;42.144;24.730;2023-05-07T05:03:55;146688.78;;;20.65;78.06
5877;BME280;2964;42.144;24.730;2023-05-07T05:06:23;147037.03;;;22.06;74.02
5877;BME280;2964;42.144;24.730;2023-05-07T05:08:49;147351.44;;;23.33;68.12
5877;BME280;2964;42.144;24.730;2023-05-07T05:11:16;147517.66;;;24.00;64.50
5877;BME280;2964;42.144;24.730;2023-05-07T05:13:43;147440.25;;;23.69;62.62
5877;BME280;2964;42.144;24.730;2023-05-07T05:16:09;147403.47;;;23.54;64.26
5877;BME280;2964;42.144;24.730;2023-05-07T05:18:36;147154.94;;;22.53;67.56
5877;BME280;2964;42.144;24.730;2023-05-07T05:21:03;147143.53;;;22.49;67.28
5877;BME280;2964;42.144;24.730;2023-05-07T05:23:31;147222.13;;;22.81;67.82
5877;BME280;2964;42.144;24.730;2023-05-07T05:25:58;147579.84;;;24.25;61.89
5877;BME280;2964;42.144;24.730;2023-05-07T05:28:25;147852.78;;;25.36;59.25
5877;BME280;2964;42.144;24.730;2023-05-07T05:30:52;147776.59;;;25.05;60.04
5877;BME280;2964;42.144;24.730;2023-05-07T05:33:19;148015.41;;;26.02;58.05
5877;BME280;2964;42.144;24.730;2023-05-07T05:35:46;148158.94;;;26.59;54.16
5877;BME280;2964;42.144;24.730;2023-05-07T05:38:13;147266.50;;;22.99;61.35
5877;BME280;2964;42.144;24.730;2023-05-07T05:40:41;147419.91;;;23.61;64.42
5877;BME280;2964;42.144;24.730;2023-05-07T05:43:08;147455.44;;;23.75;63.72
5877;BME280;2964;42.144;24.730;2023-05-07T05:45:34;147809.59;;;25.18;57.63
5877;BME280;2964;42.144;24.730;2023-05-07T05:48:01;147700.44;;;24.74;60.07
5877;BME280;2964;42.144;24.730;2023-05-07T05:50:28;148111.94;;;26.41;56.77
5877;BME280;2964;42.144;24.730;2023-05-07T05:52:54;148054.81;;;26.17;55.04
5877;BME280;2964;42.144;24.730;2023-05-07T05:55:21;148289.91;;;27.12;52.68
5877;BME280;2964;42.144;24.730;2023-05-07T05:57:49;148562.13;;;28.22;49.95
5877;BME280;2964;42.144;24.730;2023-05-07T06:00:16;148806.50;;;29.21;47.24
5877;BME280;2964;42.144;24.730;2023-05-07T06:02:43;148740.31;;;28.94;48.11
5877;BME280;2964;42.144;24.730;2023-05-07T06:05:10;148342.09;;;27.33;47.21
5877;BME280;2964;42.144;24.730;2023-05-07T06:07:37;148203.47;;;26.77;49.40
5877;BME280;2964;42.144;24.730;2023-05-07T06:10:04;148424.75;;;27.67;48.41
5877;BME280;2964;42.144;24.730;2023-05-07T06:12:31;148711.00;;;28.82;44.73
5877;BME280;2964;42.144;24.730;2023-05-07T06:14:59;148131.00;;;26.48;49.20
5877;BME280;2964;42.144;24.730;2023-05-07T06:17:26;148165.38;;;26.62;48.86
5877;BME280;2964;42.144;24.730;2023-05-07T06:19:53;148183.16;;;26.69;48.49
5877;BME280;2964;42.144;24.730;2023-05-07T06:22:20;148042.09;;;26.12;50.35
5877;BME280;2964;42.144;24.730;2023-05-07T06:24:47;148129.75;;;26.48;48.42
5877;BME280;2964;42.144;24.730;2023-05-07T06:27:13;148559.56;;;28.21;45.32
5877;BME280;2964;42.144;24.730;2023-05-07T06:29:40;148436.16;;;27.71;45.50
5877;BME280;2964;42.144;24.730;2023-05-07T06:32:08;147967.06;;;25.82;48.92
5877;BME280;2964;42.144;24.730;2023-05-07T06:34:35;148261.94;;;27.01;48.36
5877;BME280;2964;42.144;24.730;2023-05-07T06:37:02;148597.72;;;28.37;44.69
5877;BME280;2964;42.144;24.730;2023-05-07T06:39:29;148862.50;;;29.43;40.17
5877;BME280;2964;42.144;24.730;2023-05-07T06:41:55;148642.31;;;28.55;42.53
5877;BME280;2964;42.144;24.730;2023-05-07T06:44:22;148256.88;;;26.99;45.38
5877;BME280;2964;42.144;24.730;2023-05-07T06:46:49;148745.41;;;28.96;44.07
5877;BME280;2964;42.144;24.730;2023-05-07T06:49:17;148834.50;;;29.32;39.96
5877;BME280;2964;42.144;24.730;2023-05-07T06:51:43;148050.97;;;26.16;45.12
5877;BME280;2964;42.144;24.730;2023-05-07T06:54:10;148119.59;;;26.44;45.31
5877;BME280;2964;42.144;24.730;2023-05-07T06:56:37;148615.53;;;28.44;41.79
5877;BME280;2964;42.144;24.730;2023-05-07T06:59:03;148315.34;;;27.23;44.10
5877;BME280;2964;42.144;24.730;2023-05-07T07:01:30;148513.78;;;28.03;42.62
5877;BME280;2964;42.144;24.730;2023-05-07T07:03:56;148394.22;;;27.54;44.37
5877;BME280;2964;42.144;24.730;2023-05-07T07:06:24;148732.66;;;28.91;40.44
5877;BME280;2964;42.144;24.730;2023-05-07T07:08:52;148494.72;;;27.95;43.64
5877;BME280;2964;42.144;24.730;2023-05-07T07:11:18;148380.22;;;27.49;44.54
5877;BME280;2964;42.144;24.730;2023-05-07T07:13:46;148763.22;;;29.03;40.79
5877;BME280;2964;42.144;24.730;2023-05-07T07:16:12;149333.91;;;31.33;38.14
5877;BME280;2964;42.144;24.730;2023-05-07T07:18:39;149082.88;;;30.32;37.26
5877;BME280;2964;42.144;24.730;2023-05-07T07:21:06;149574.94;;;32.30;36.33
5877;BME280;2964;42.144;24.730;2023-05-07T07:23:34;150091.88;;;34.38;32.55
5877;BME280;2964;42.144;24.730;2023-05-07T07:26:00;149458.91;;;31.84;35.34
5877;BME280;2964;42.144;24.730;2023-05-07T07:28:27;148595.19;;;28.36;40.68
5877;BME280;2964;42.144;24.730;2023-05-07T07:30:53;148788.69;;;29.14;38.50
5877;BME280;2964;42.144;24.730;2023-05-07T07:33:20;149140.22;;;30.55;36.40
5877;BME280;2964;42.144;24.730;2023-05-07T07:35:47;149159.31;;;30.63;37.06
5877;BME280;2964;42.144;24.730;2023-05-07T07:38:13;149040.81;;;30.15;38.18
5877;BME280;2964;42.144;24.730;2023-05-07T07:40:41;149137.69;;;30.54;37.41
5877;BME280;2964;42.144;24.730;2023-05-07T07:43:09;149247.25;;;30.98;36.68
5877;BME280;2964;42.144;24.730;2023-05-07T07:45:35;149061.22;;;30.24;35.78
5877;BME280;2964;42.144;24.730;2023-05-07T07:48:02;149388.75;;;31.55;36.49
5877;BME280;2964;42.144;24.730;2023-05-07T07:50:29;149765.00;;;33.07;31.81
5877;BME280;2964;42.144;24.730;2023-05-07T07:52:56;149388.75;;;31.55;33.55
5877;BME280;2964;42.144;24.730;2023-05-07T07:55:23;149984.56;;;33.95;32.03
5877;BME280;2964;42.144;24.730;2023-05-07T07:57:51;150056.13;;;34.24;30.38
5877;BME280;2964;42.144;24.730;2023-05-07T08:00:18;150250.22;;;35.02;29.70
5877;BME280;2964;42.144;24.730;2023-05-07T08:02:45;150220.88;;;34.90;27.68
5877;BME280;2964;42.144;24.730;2023-05-07T08:05:11;150307.75;;;35.25;27.60
5877;BME280;2964;42.144;24.730;2023-05-07T08:07:38;150384.38;;;35.56;28.11
5877;BME280;2964;42.144;24.730;2023-05-07T08:10:05;150375.41;;;35.52;27.83
5877;BME280;2964;42.144;24.730;2023-05-07T08:12:32;149724.22;;;32.91;30.11
5877;BME280;2964;42.144;24.730;2023-05-07T08:15:00;149316.06;;;31.26;33.37
5877;BME280;2964;42.144;24.730;2023-05-07T08:17:27;149851.81;;;33.42;30.74
5877;BME280;2964;42.144;24.730;2023-05-07T08:19:53;150250.22;;;35.02;28.94
5877;BME280;2964;42.144;24.730;2023-05-07T08:22:20;150482.81;;;35.95;27.40
5877;BME280;2964;42.144;24.730;2023-05-07T08:24:48;150426.59;;;35.73;26.57
5877;BME280;2964;42.144;24.730;2023-05-07T08:27:14;150045.91;;;34.20;27.09
5877;BME280;2964;42.144;24.730;2023-05-07T08:29:41;149305.88;;;31.22;31.29
5877;BME280;2964;42.144;24.730;2023-05-07T08:32:09;149415.53;;;31.66;30.95
5877;BME280;2964;42.144;24.730;2023-05-07T08:34:36;149070.13;;;30.27;33.87
5877;BME280;2964;42.144;24.730;2023-05-07T08:37:02;149513.75;;;32.06;31.12
5877;BME280;2964;42.144;24.730;2023-05-07T08:39:29;149081.56;;;30.32;33.25
5877;BME280;2964;42.144;24.730;2023-05-07T08:41:56;149414.28;;;31.66;31.77
5877;BME280;2964;42.144;24.730;2023-05-07T08:44:26;149331.38;;;31.32;30.96
5877;BME280;2964;42.144;24.730;2023-05-07T08:46:56;149606.81;;;32.43;30.06
5877;BME280;2964;42.144;24.730;2023-05-07T08:49:24;149354.31;;;31.42;31.82
5877;BME280;2964;42.144;24.730;2023-05-07T08:51:52;149415.53;;;31.66;32.01
5877;BME280;2964;42.144;24.730;2023-05-07T08:54:20;149848.00;;;33.40;29.43
5877;BME280;2964;42.144;24.730;2023-05-07T08:56:47;150011.38;;;34.06;27.34
5877;BME280;2964;42.144;24.730;2023-05-07T08:59:15;149530.31;;;32.12;29.27
5877;BME280;2964;42.144;24.730;2023-05-07T09:01:42;149485.63;;;31.94;30.44
5877;BME280;2964;42.144;24.730;2023-05-07T09:04:08;149622.13;;;32.49;29.44
5877;BME280;2964;42.144;24.730;2023-05-07T09:06:36;149683.41;;;32.74;28.26
5877;BME280;2964;42.144;24.730;2023-05-07T09:09:07;149761.22;;;33.05;28.06
5877;BME280;2964;42.144;24.730;2023-05-07T09:11:34;149957.75;;;33.84;27.07
5877;BME280;2964;42.144;24.730;2023-05-07T09:14:00;150086.78;;;34.36;27.03
5877;BME280;2964;42.144;24.730;2023-05-07T09:16:29;149920.75;;;33.70;27.39
5877;BME280;2964;42.144;24.730;2023-05-07T09:18:57;149531.63;;;32.13;28.40
5877;BME280;2964;42.144;24.730;2023-05-07T09:21:24;149818.66;;;33.28;28.12
5877;BME280;2964;42.144;24.730;2023-05-07T09:23:53;149100.72;;;30.39;29.26
5877;BME280;2964;42.144;24.730;2023-05-07T09:26:21;148978.44;;;29.90;28.92
5877;BME280;2964;42.144;24.730;2023-05-07T09:28:48;148972.03;;;29.88;29.34
5877;BME280;2964;42.144;24.730;2023-05-07T09:31:15;148947.88;;;29.78;29.25
5877;BME280;2964;42.144;24.730;2023-05-07T09:33:41;148283.56;;;27.10;33.74
5877;BME280;2964;42.144;24.730;2023-05-07T09:36:09;148983.53;;;29.92;28.87
5877;BME280;2964;42.144;24.730;2023-05-07T09:38:37;149216.66;;;30.86;27.65
5877;BME280;2964;42.144;24.730;2023-05-07T09:41:07;149210.25;;;30.84;27.79
5877;BME280;2964;42.144;24.730;2023-05-07T09:43:35;149137.69;;;30.54;28.51
5877;BME280;2964;42.144;24.730;2023-05-07T09:46:03;149048.47;;;30.18;29.75
5877;BME280;2964;42.144;24.730;2023-05-07T09:48:30;148955.53;;;29.81;29.44
5877;BME280;2964;42.144;24.730;2023-05-07T09:51:02;148553.22;;;28.19;32.39
5877;BME280;2964;42.144;24.730;2023-05-07T09:53:29;148546.84;;;28.16;32.01
5877;BME280;2964;42.144;24.730;2023-05-07T09:55:57;148527.78;;;28.08;32.89
5877;BME280;2964;42.144;24.730;2023-05-07T09:58:26;148284.84;;;27.10;35.16
5877;BME280;2964;42.144;24.730;2023-05-07T10:00:52;148342.09;;;27.33;35.07
5877;BME280;2964;42.144;24.730;2023-05-07T10:03:20;148217.47;;;26.83;36.00
5877;BME280;2964;42.144;24.730;2023-05-07T10:05:49;147779.09;;;25.06;38.94
5877;BME280;2964;42.144;24.730;2023-05-07T10:08:16;147636.91;;;24.48;39.70
5877;BME280;2964;42.144;24.730;2023-05-07T10:10:45;147454.19;;;23.75;42.83
5877;BME280;2964;42.144;24.730;2023-05-07T10:13:12;147502.47;;;23.94;42.31
5877;BME280;2964;42.144;24.730;2023-05-07T10:15:41;147459.25;;;23.77;42.99
5877;BME280;2964;42.144;24.730;2023-05-07T10:18:08;147409.78;;;23.57;42.04
5877;BME280;2964;42.144;24.730;2023-05-07T10:20:36;147454.19;;;23.75;43.43
5877;BME280;2964;42.144;24.730;2023-05-07T10:23:04;147411.09;;;23.57;43.18
5877;BME280;2964;42.144;24.730;2023-05-07T10:25:32;147439.00;;;23.68;41.80
5877;BME280;2964;42.144;24.730;2023-05-07T10:28:01;147421.22;;;23.61;42.77
5877;BME280;2964;42.144;24.730;2023-05-07T10:30:39;147303.31;;;23.13;43.16
5877;BME280;2964;42.144;24.730;2023-05-07T10:33:15;147291.88;;;23.09;44.28
5877;BME280;2964;42.144;24.730;2023-05-07T10:35:45;147281.72;;;23.05;44.17
5877;BME280;2964;42.144;24.730;2023-05-07T10:38:13;147208.16;;;22.75;45.31
5877;BME280;2964;42.144;24.730;2023-05-07T10:40:40;147225.91;;;22.82;44.50
5877;BME280;2964;42.144;24.730;2023-05-07T10:43:06;147256.34;;;22.94;44.95
5877;BME280;2964;42.144;24.730;2023-05-07T10:45:33;147154.94;;;22.53;44.37
5877;BME280;2964;42.144;24.730;2023-05-07T10:48:10;147187.91;;;22.67;43.96
5877;BME280;2964;42.144;24.730;2023-05-07T10:50:40;147172.66;;;22.61;43.44
5877;BME280;2964;42.144;24.730;2023-05-07T10:53:23;147180.28;;;22.64;43.79
5877;BME280;2964;42.144;24.730;2023-05-07T10:56:25;147195.47;;;22.70;42.89
5877;BME280;2964;42.144;24.730;2023-05-07T10:58:53;147156.22;;;22.54;42.98
5877;BME280;2964;42.144;24.730;2023-05-07T11:01:49;147160.00;;;22.55;42.75
5877;BME280;2964;42.144;24.730;2023-05-07T11:04:16;147204.34;;;22.73;43.08
5877;BME280;2964;42.144;24.730;2023-05-07T11:07:22;147206.91;;;22.74;42.51
5877;BME280;2964;42.144;24.730;2023-05-07T11:10:01;147149.88;;;22.51;43.71
5877;BME280;2964;42.144;24.730;2023-05-07T11:12:50;147095.38;;;22.29;42.80
5877;BME280;2964;42.144;24.730;2023-05-07T11:15:37;147053.53;;;22.12;43.89
5877;BME280;2964;42.144;24.730;2023-05-07T11:18:05;147105.50;;;22.33;43.65
5877;BME280;2964;42.144;24.730;2023-05-07T11:20:51;147118.19;;;22.39;43.69
5877;BME280;2964;42.144;24.730;2023-05-07T11:26:17;147118.19;;;22.39;43.42
5877;BME280;2964;42.144;24.730;2023-05-07T11:28:45;147156.22;;;22.54;43.23
5877;BME280;2964;42.144;24.730;2023-05-07T11:31:12;147172.66;;;22.61;42.54
5877;BME280;2964;42.144;24.730;2023-05-07T11:33:40;147166.34;;;22.58;41.84
5877;BME280;2964;42.144;24.730;2023-05-07T11:36:08;147180.28;;;22.64;42.17
5877;BME280;2964;42.144;24.730;2023-05-07T11:38:35;147191.69;;;22.68;42.34
5877;BME280;2964;42.144;24.730;2023-05-07T11:41:02;147228.44;;;22.83;42.04
5877;BME280;2964;42.144;24.730;2023-05-07T11:43:30;147182.81;;;22.65;42.12
5877;BME280;2964;42.144;24.730;2023-05-07T11:46:07;147199.28;;;22.71;40.29
5877;BME280;2964;42.144;24.730;2023-05-07T11:48:34;147162.53;;;22.57;41.28
5877;BME280;2964;42.144;24.730;2023-05-07T11:51:02;147180.28;;;22.64;39.76
5877;BME280;2964;42.144;24.730;2023-05-07T11:53:36;147184.09;;;22.65;40.80
5877;BME280;2964;42.144;24.730;2023-05-07T11:56:06;147148.59;;;22.51;41.01
5877;BME280;2964;42.144;24.730;2023-05-07T11:58:33;147251.25;;;22.92;41.45
5877;BME280;2964;42.144;24.730;2023-05-07T12:01:00;147206.91;;;22.74;42.47
5877;BME280;2964;42.144;24.730;2023-05-07T12:03:28;147139.72;;;22.47;42.10
5877;BME280;2964;42.144;24.730;2023-05-07T12:05:55;147076.31;;;22.22;42.32
5877;BME280;2964;42.144;24.730;2023-05-07T12:08:22;147190.41;;;22.68;42.14
5877;BME280;2964;42.144;24.730;2023-05-07T12:10:49;147241.13;;;22.88;41.77
5877;BME280;2964;42.144;24.730;2023-05-07T12:13:16;147280.47;;;23.04;41.64
5877;BME280;2964;42.144;24.730;2023-05-07T12:15:43;147143.53;;;22.49;42.51
5877;BME280;2964;42.144;24.730;2023-05-07T12:18:10;147209.41;;;22.75;42.71
5877;BME280;2964;42.144;24.730;2023-05-07T12:20:39;147213.22;;;22.77;42.83
5877;BME280;2964;42.144;24.730;2023-05-07T12:23:06;147289.34;;;23.08;42.88
5877;BME280;2964;42.144;24.730;2023-05-07T12:25:34;147253.81;;;22.93;41.80
5877;BME280;2964;42.144;24.730;2023-05-07T12:28:01;147294.41;;;23.10;41.84
5877;BME280;2964;42.144;24.730;2023-05-07T12:30:29;147341.31;;;23.29;41.29
5877;BME280;2964;42.144;24.730;2023-05-07T12:32:55;147355.25;;;23.35;40.30
5877;BME280;2964;42.144;24.730;2023-05-07T12:35:27;147350.19;;;23.32;41.05
5877;BME280;2964;42.144;24.730;2023-05-07T12:37:59;147276.63;;;23.03;41.49
5877;BME280;2964;42.144;24.730;2023-05-07T12:40:35;147286.78;;;23.07;41.95
5877;BME280;2964;42.144;24.730;2023-05-07T12:43:02;147265.22;;;22.98;42.59
5877;BME280;2964;42.144;24.730;2023-05-07T12:45:29;147288.09;;;23.07;41.94
5877;BME280;2964;42.144;24.730;2023-05-07T12:47:56;147223.38;;;22.81;42.00
5877;BME280;2964;42.144;24.730;2023-05-07T12:50:31;147185.34;;;22.66;42.23
5877;BME280;2964;42.144;24.730;2023-05-07T12:52:59;147200.56;;;22.72;41.73
5877;BME280;2964;42.144;24.730;2023-05-07T12:55:28;147192.97;;;22.69;41.93
5877;BME280;2964;42.144;24.730;2023-05-07T12:57:55;147208.16;;;22.75;42.36
5877;BME280;2964;42.144;24.730;2023-05-07T13:00:36;147200.56;;;22.72;42.45
5877;BME280;2964;42.144;24.730;2023-05-07T13:03:03;147211.97;;;22.77;41.88
5877;BME280;2964;42.144;24.730;2023-05-07T13:05:30;147248.75;;;22.91;42.65